Time;durP1;ratioP1;P1;durP2;ratioP2;P2;SDS_P1;SDS_P2;PMS_P1;PMS_P2;Temp;Humidity;BMP_temperature;BMP_pressure;BME280_temperature;BME280_humidity;BME280_pressure;Samples;Min_cycle;Max_cycle;Signal;HPM_P1;HPM_P2
2021/04/27 00:00:14;;;;;;;53.23;20.77;;;;;;;0.86;58.04;100433.05;115152;1200;23126;-55
2021/04/27 00:03:04;;;;;;;54.00;22.17;;;;;;;0.78;58.49;100415.88;115189;1202;23099;-56
2021/04/27 00:05:33;;;;;;;50.00;18.90;;;;;;;0.70;58.32;100428.09;115113;1203;23205;-56
2021/04/27 00:08:03;;;;;;;49.97;19.20;;;;;;;0.63;58.40;100419.94;115271;1202;24290;-55
2021/04/27 00:10:31;;;;;;;51.10;20.43;;;;;;;0.58;58.65;100420.37;115311;1202;24733;-55
2021/04/27 00:13:01;;;;;;;50.50;20.10;;;;;;;0.54;58.23;100411.39;115297;1202;27322;-57
2021/04/27 00:15:31;;;;;;;46.50;19.20;;;;;;;0.53;58.54;100417.30;115368;1202;25972;-55
2021/04/27 00:18:00;;;;;;;44.20;19.05;;;;;;;0.51;58.31;100414.17;115148;1202;24775;-58
2021/04/27 00:20:29;;;;;;;52.87;20.50;;;;;;;0.48;58.71;100421.25;115129;1203;23098;-54
2021/04/27 00:22:58;;;;;;;51.90;21.45;;;;;;;0.41;58.66;100415.05;115080;1202;23102;-55
2021/04/27 00:25:27;;;;;;;52.37;21.30;;;;;;;0.36;58.94;100408.03;115216;1202;23138;-54
2021/04/27 00:27:56;;;;;;;47.83;19.43;;;;;;;0.27;58.90;100410.45;115215;1199;27418;-55
2021/04/27 00:30:26;;;;;;;51.77;22.03;;;;;;;0.23;59.02;100395.97;115176;1200;26430;-57
2021/04/27 00:32:54;;;;;;;;;;;;;;;0.19;59.08;100403.47;115117;1204;23102;-56
2021/04/27 00:35:25;;;;;;;49.55;18.70;;;;;;;0.16;59.12;100398.01;115111;1202;26892;-56
2021/04/27 00:37:54;;;;;;;45.53;19.97;;;;;;;0.14;59.03;100397.63;115335;1202;26900;-57
2021/04/27 00:40:23;;;;;;;52.30;21.00;;;;;;;0.11;59.11;100398.43;115138;1202;23238;-59
2021/04/27 00:42:51;;;;;;;47.40;19.15;;;;;;;0.09;59.16;100392.56;115047;1201;28125;-57
2021/04/27 00:45:22;;;;;;;50.30;19.70;;;;;;;0.09;59.41;100392.56;115105;1200;23199;-58
2021/04/27 00:47:50;;;;;;;;;;;;;;;0.07;59.32;100394.94;114859;1204;25993;-59
2021/04/27 00:50:21;;;;;;;57.20;21.75;;;;;;;0.06;59.26;100391.44;115254;1199;24427;-57
2021/04/27 00:52:49;;;;;;;62.05;23.20;;;;;;;0.07;59.55;100394.94;115259;1202;28146;-57
2021/04/27 00:55:18;;;;;;;60.40;23.50;;;;;;;0.04;59.53;100391.06;115152;1202;26091;-54
2021/04/27 00:57:47;;;;;;;60.07;23.37;;;;;;;0.04;59.84;100387.53;115131;1202;23187;-56
2021/04/27 01:00:22;;;;;;;55.10;23.50;;;;;;;0.02;59.48;100385.19;115127;1202;23129;-55
2021/04/27 01:02:51;;;;;;;59.80;24.25;;;;;;;0.01;59.78;100383.62;115096;1197;23319;-55
2021/04/27 01:05:22;;;;;;;66.37;26.30;;;;;;;-0.06;59.91;100384.45;115188;1202;23301;-56
2021/04/27 01:07:59;;;;;;;59.15;25.45;;;;;;;-0.09;59.77;100382.53;115152;1202;27246;-57
2021/04/27 01:10:33;;;;;;;63.37;25.00;;;;;;;-0.09;60.44;100379.00;115420;1202;23089;-56
2021/04/27 01:13:08;;;;;;;60.20;24.45;;;;;;;-0.16;60.40;100373.55;115376;1200;23256;-56
2021/04/27 01:15:36;;;;;;;59.80;24.73;;;;;;;-0.21;60.27;100380.23;115191;1202;23113;-57
2021/04/27 01:18:06;;;;;;;60.30;24.30;;;;;;;-0.27;60.54;100386.58;115194;1202;24916;-55
2021/04/27 01:20:40;;;;;;;55.67;25.63;;;;;;;-0.32;60.43;100381.51;115201;1202;27355;-55
2021/04/27 01:23:29;;;;;;;67.90;26.10;;;;;;;-0.38;60.78;100385.86;115202;1201;29742;-55
2021/04/27 01:26:03;;;;;;;68.50;26.15;;;;;;;-0.43;60.72;100386.27;115188;1201;23123;-55
2021/04/27 01:28:33;;;;;;;68.50;27.60;;;;;;;-0.46;60.79;100384.34;115124;1202;28477;-55
2021/04/27 01:31:03;;;;;;;74.05;27.60;;;;;;;-0.53;61.15;100378.89;115195;1200;23236;-58
2021/04/27 01:33:33;;;;;;;72.83;27.87;;;;;;;-0.58;60.98;100382.83;115135;1202;23423;-55
2021/04/27 01:36:03;;;;;;;66.07;26.67;;;;;;;-0.57;60.88;100383.62;115204;1202;24735;-56
2021/04/27 01:38:32;;;;;;;73.20;25.65;;;;;;;-0.57;60.95;100373.44;115303;1202;23098;-56
2021/04/27 01:41:01;;;;;;;69.27;27.50;;;;;;;-0.58;61.05;100385.57;115163;1201;23163;-55
2021/04/27 01:43:30;;;;;;;60.00;25.80;;;;;;;-0.58;61.09;100382.83;115144;1201;23480;-55
2021/04/27 01:46:03;;;;;;;66.00;26.20;;;;;;;-0.60;61.20;100381.69;115365;1202;23106;-55
2021/04/27 01:48:32;;;;;;;66.35;25.80;;;;;;;-0.64;60.98;100381.69;115196;1202;23098;-54
2021/04/27 01:51:04;;;;;;;66.95;25.45;;;;;;;-0.71;61.46;100381.75;115218;1200;23231;-55
2021/04/27 01:53:32;;;;;;;;;;;;;;;-0.74;61.40;100373.52;115243;1205;23343;-55
2021/04/27 01:56:01;;;;;;;78.83;30.57;;;;;;;-0.75;61.83;100383.73;115173;1202;25806;-57
2021/04/27 01:58:29;;;;;;;87.20;31.95;;;;;;;-0.74;62.20;100376.26;115187;1201;23279;-55
2021/04/27 02:00:58;;;;;;;72.40;30.40;;;;;;;-0.77;61.79;100379.81;115172;1202;25998;-54
2021/04/27 02:03:28;;;;;;;82.10;33.30;;;;;;;-0.76;61.57;100376.67;115340;1202;23105;-61
2021/04/27 02:05:57;;;;;;;90.13;35.47;;;;;;;-0.76;61.69;100371.19;115221;1202;23163;-56
2021/04/27 02:08:25;;;;;;;81.85;31.70;;;;;;;-0.76;61.58;100373.92;115082;1202;23113;-57
2021/04/27 02:10:54;;;;;;;85.10;32.00;;;;;;;-0.78;61.78;100370.80;115074;1202;23129;-54
2021/04/27 02:13:24;;;;;;;87.27;32.13;;;;;;;-0.84;61.69;100370.45;115050;1202;24221;-56
2021/04/27 02:15:52;;;;;;;77.70;31.63;;;;;;;-0.87;61.76;100373.97;115181;1202;23569;-54
2021/04/27 02:18:28;;;;;;;76.97;30.23;;;;;;;-0.92;61.77;100362.66;115175;1200;23202;-55
2021/04/27 02:21:00;;;;;;;81.35;30.70;;;;;;;-0.99;61.97;100370.89;115284;1196;27865;-55
2021/04/27 02:23:30;;;;;;;79.27;30.10;;;;;;;-1.02;61.92;100377.19;115068;1202;23166;-57
2021/04/27 02:26:00;;;;;;;78.70;30.10;;;;;;;-1.07;62.14;100372.89;115330;1201;25070;-58
2021/04/27 02:28:28;;;;;;;;;;;;;;;-1.12;62.16;100372.53;118774;1203;22873;-58
2021/04/27 02:30:59;;;;;;;71.60;27.80;;;;;;;-1.15;62.03;100368.63;117562;1202;21585;-57
2021/04/27 02:33:28;;;;;;;69.70;26.20;;;;;;;-1.12;61.96;100365.07;115279;1200;23129;-54
2021/04/27 02:35:57;;;;;;;64.15;25.55;;;;;;;-1.12;61.89;100359.59;115209;1202;23098;-56
2021/04/27 02:38:26;;;;;;;61.57;25.17;;;;;;;-1.09;62.01;100372.52;115164;1202;24732;-55
2021/04/27 02:40:56;;;;;;;69.85;28.80;;;;;;;-1.07;62.26;100372.89;115121;1202;23096;-56
2021/04/27 02:43:25;;;;;;;69.40;26.68;;;;;;;-1.07;62.47;100372.10;115265;1202;28614;-54
2021/04/27 02:45:54;;;;;;;65.75;26.70;;;;;;;-1.06;62.76;100370.94;115239;1202;23385;-55
2021/04/27 02:48:25;;;;;;;68.20;27.30;;;;;;;-1.05;62.82;100372.48;115183;1196;29306;-54
2021/04/27 02:50:55;;;;;;;66.10;25.13;;;;;;;-1.03;62.99;100378.34;115239;1202;26134;-58
2021/04/27 02:53:25;;;;;;;53.80;23.57;;;;;;;-1.02;63.18;100377.19;115216;1199;30774;-58
2021/04/27 02:55:55;;;;;;;61.45;24.85;;;;;;;-1.05;62.92;100369.75;115272;1202;23098;-54
2021/04/27 02:58:24;;;;;;;61.63;25.47;;;;;;;-1.07;63.13;100372.89;115592;1202;23159;-58
2021/04/27 03:00:53;;;;;;;61.35;25.55;;;;;;;-1.12;63.08;100375.27;115274;1202;23098;-54
2021/04/27 03:03:21;;;;;;;52.77;22.47;;;;;;;-1.17;62.96;100375.67;115284;1202;23119;-56
2021/04/27 03:05:50;;;;;;;57.13;24.20;;;;;;;-1.17;63.48;100365.50;115148;1202;23099;-55
2021/04/27 03:08:19;;;;;;;65.40;25.23;;;;;;;-1.17;63.67;100372.93;115261;1202;25964;-54
2021/04/27 03:10:48;;;;;;;56.80;22.20;;;;;;;-1.15;64.05;100371.36;115195;1202;23084;-56
2021/04/27 03:13:16;;;;;;;55.23;23.03;;;;;;;-1.14;64.05;100374.89;115153;1202;25714;-55
2021/04/27 03:15:45;;;;;;;57.20;22.60;;;;;;;-1.15;64.42;100367.83;115228;1203;23118;-55
2021/04/27 03:18:14;;;;;;;55.47;22.10;;;;;;;-1.14;64.31;100372.15;115281;1202;23167;-57
2021/04/27 03:20:43;;;;;;;55.43;22.80;;;;;;;-1.17;64.19;100361.97;115212;1200;23279;-54
2021/04/27 03:23:13;;;;;;;53.65;21.75;;;;;;;-1.18;64.18;100365.91;115114;1202;24898;-54
2021/04/27 03:25:41;;;;;;;54.77;22.83;;;;;;;-1.20;64.05;100369.02;115233;1200;23214;-56
2021/04/27 03:28:10;;;;;;;49.80;20.75;;;;;;;-1.22;64.12;100362.39;115440;1201;23098;-57
2021/04/27 03:30:39;;;;;;;52.13;20.43;;;;;;;-1.25;64.14;100363.97;115195;1202;23093;-55
2021/04/27 03:33:08;;;;;;;58.40;21.65;;;;;;;-1.30;64.13;100367.09;115193;1202;23095;-55
2021/04/27 03:35:37;;;;;;;45.90;19.27;;;;;;;-1.32;64.12;100363.97;115235;1200;23187;-55
2021/04/27 03:38:05;;;;;;;43.03;18.97;;;;;;;-1.33;63.79;100365.16;115195;1202;24732;-56
2021/04/27 03:40:34;;;;;;;52.80;19.33;;;;;;;-1.31;63.95;100360.08;115172;1202;26327;-57
2021/04/27 03:43:02;;;;;;;48.40;20.10;;;;;;;-1.29;63.66;100365.14;115204;1200;23095;-57
2021/04/27 03:45:35;;;;;;;49.80;20.60;;;;;;;-1.28;63.62;100363.98;115153;1199;23099;-56
2021/04/27 03:48:11;;;;;;;52.50;20.10;;;;;;;-1.27;63.78;100362.79;115270;1202;24910;-56
2021/04/27 03:50:40;;;;;;;51.65;19.20;;;;;;;-1.29;63.82;100367.89;115221;1202;27434;-55
2021/04/27 03:53:09;;;;;;;51.43;19.97;;;;;;;-1.31;63.67;100367.50;115116;1198;29033;-55
2021/04/27 03:55:38;;;;;;;47.90;18.65;;;;;;;-1.31;63.67;100371.03;115197;1202;23148;-57
2021/04/27 03:58:09;;;;;;;51.00;18.70;;;;;;;-1.30;63.62;100369.84;115148;1202;24919;-58
2021/04/27 04:00:38;;;;;;;49.83;20.13;;;;;;;-1.30;63.67;100369.84;115191;1202;25022;-58
2021/04/27 04:03:07;;;;;;;53.07;20.60;;;;;;;-1.29;63.66;100365.94;115134;1203;27370;-55
2021/04/27 04:05:36;;;;;;;52.65;19.25;;;;;;;-1.29;63.61;100368.67;115207;1200;23249;-55
2021/04/27 04:08:05;;;;;;;52.95;21.75;;;;;;;-1.27;63.76;100368.27;115168;1202;23109;-57
2021/04/27 04:10:34;;;;;;;54.90;20.80;;;;;;;-1.25;63.86;100363.97;115231;1198;25936;-57
2021/04/27 04:13:03;;;;;;;68.30;26.80;;;;;;;-1.22;64.11;100370.61;115238;1200;23249;-55
2021/04/27 04:15:31;;;;;;;83.90;32.80;;;;;;;-1.20;64.29;100369.02;115101;1200;23173;-55
2021/04/27 04:17:59;;;;;;;93.53;37.33;;;;;;;-1.16;64.44;100377.24;115174;1202;23558;-56
2021/04/27 04:20:28;;;;;;;84.80;38.57;;;;;;;-1.14;64.66;100383.11;115163;1202;23250;-57
2021/04/27 04:22:57;;;;;;;83.40;36.70;;;;;;;-1.13;64.63;100385.44;115207;1202;23179;-57
2021/04/27 04:25:25;;;;;;;72.20;32.45;;;;;;;-1.09;64.87;100388.16;114982;1200;29239;-56
2021/04/27 04:27:54;;;;;;;74.50;28.60;;;;;;;-1.06;65.00;100390.13;115769;1164;23097;-59
2021/04/27 04:30:25;;;;;;;64.13;26.00;;;;;;;-1.03;64.80;100392.84;115147;1196;23160;-56
2021/04/27 04:32:55;;;;;;;54.80;23.87;;;;;;;-0.99;64.94;100390.08;115678;1200;23108;-58
2021/04/27 04:35:26;;;;;;;56.20;21.85;;;;;;;-0.95;65.00;100394.37;115043;1202;23179;-59
2021/04/27 04:37:53;;;;;;;;;;;;;;;-0.90;65.31;100395.92;115338;1204;23183;-58
2021/04/27 04:40:23;;;;;;;64.93;25.90;;;;;;;-0.86;65.93;100399.43;115121;1202;21668;-56
2021/04/27 04:42:51;;;;;;;65.00;27.60;;;;;;;-0.84;65.52;100406.08;115432;1202;23239;-55
2021/04/27 04:45:20;;;;;;;66.40;28.50;;;;;;;-0.77;65.67;100408.02;114999;1201;27378;-59
2021/04/27 04:47:49;;;;;;;59.15;27.55;;;;;;;-0.71;65.55;100405.63;115044;1202;24734;-58
2021/04/27 04:50:18;;;;;;;63.73;27.53;;;;;;;-0.67;65.71;100407.18;115154;1202;23091;-58
2021/04/27 04:52:47;;;;;;;66.33;26.33;;;;;;;-0.60;66.09;100403.63;115168;1202;23141;-57
2021/04/27 04:55:17;;;;;;;62.00;26.20;;;;;;;-0.54;65.98;100402.02;115120;1201;23096;-57
2021/04/27 04:57:46;;;;;;;66.03;25.77;;;;;;;-0.48;66.19;100403.16;115232;1202;23556;-58
2021/04/27 05:00:18;;;;;;;61.00;26.33;;;;;;;-0.45;66.79;100403.13;115138;1201;23105;-57
2021/04/27 05:02:47;;;;;;;61.03;24.07;;;;;;;-0.38;66.55;100403.11;115242;1202;23187;-58
2021/04/27 05:05:17;;;;;;;61.40;24.50;;;;;;;-0.30;66.83;100401.88;114972;1202;27674;-58
2021/04/27 05:07:46;;;;;;;;;;;;;;;-0.23;66.61;100398.31;115198;1204;28372;-58
2021/04/27 05:10:16;;;;;;;57.05;26.40;;;;;;;-0.19;66.83;100405.31;115217;1201;21600;-57
2021/04/27 05:12:46;;;;;;;62.53;26.23;;;;;;;-0.17;66.98;100405.72;114916;1202;25974;-60
2021/04/27 05:15:16;;;;;;;65.00;27.80;;;;;;;-0.13;67.19;100413.91;114935;1196;23352;-59
2021/04/27 05:17:46;;;;;;;62.23;26.30;;;;;;;-0.09;67.40;100411.92;115216;1202;23125;-61
2021/04/27 05:20:15;;;;;;;62.15;25.00;;;;;;;-0.02;67.40;100412.64;115141;1201;23241;-60
2021/04/27 05:22:46;;;;;;;58.47;26.30;;;;;;;0.08;67.85;100412.98;115128;1202;23196;-58
2021/04/27 05:25:14;;;;;;;;;;;;;;;0.13;68.02;100412.53;115226;1204;23110;-62
2021/04/27 05:27:45;;;;;;;61.45;26.00;;;;;;;0.22;68.30;100407.38;115054;1203;21772;-61
2021/04/27 05:30:18;;;;;;;64.73;28.33;;;;;;;0.28;68.39;100414.77;115123;1202;23167;-62
2021/04/27 05:32:47;;;;;;;56.07;26.27;;;;;;;0.34;68.34;100418.64;115152;1201;23116;-60
2021/04/27 05:35:16;;;;;;;61.17;26.63;;;;;;;0.41;68.41;100413.09;115060;1201;23097;-61
2021/04/27 05:37:46;;;;;;;59.00;27.20;;;;;;;0.50;68.50;100418.09;115088;1202;23164;-63
2021/04/27 05:40:17;;;;;;;57.75;26.35;;;;;;;0.60;68.24;100420.74;115141;1202;24529;-60
2021/04/27 05:42:47;;;;;;;59.53;27.10;;;;;;;0.69;68.39;100420.27;116458;1202;23087;-59
2021/04/27 05:45:16;;;;;;;64.80;28.40;;;;;;;0.81;68.45;100417.78;115081;1196;26108;-61
2021/04/27 05:47:46;;;;;;;62.30;28.90;;;;;;;0.95;68.83;100419.62;115202;1197;23268;-59
2021/04/27 05:50:15;;;;;;;63.48;29.90;;;;;;;1.10;68.61;100418.25;115260;1202;23108;-59
2021/04/27 05:52:44;;;;;;;54.93;26.67;;;;;;;1.24;68.83;100423.57;115077;1197;27317;-61
2021/04/27 05:55:15;;;;;;;50.80;23.50;;;;;;;1.38;68.32;100422.63;115110;1202;26271;-58
2021/04/27 05:57:44;;;;;;;56.27;24.70;;;;;;;1.49;68.25;100423.28;115159;1200;23166;-61
2021/04/27 06:00:16;;;;;;;49.10;21.83;;;;;;;1.59;68.16;100425.87;115099;1202;23125;-60
2021/04/27 06:02:45;;;;;;;44.50;19.47;;;;;;;1.73;68.16;100430.41;115127;1201;23167;-59
2021/04/27 06:05:14;;;;;;;43.40;19.75;;;;;;;1.88;68.38;100434.53;114992;1203;23103;-58
2021/04/27 06:07:43;;;;;;;45.10;18.60;;;;;;;2.02;68.03;100430.77;115300;1196;23118;-60
2021/04/27 06:10:13;;;;;;;42.07;18.10;;;;;;;2.15;67.60;100432.52;115190;1197;25656;-62
2021/04/27 06:12:43;;;;;;;43.73;19.00;;;;;;;2.25;67.58;100436.32;115274;1202;26067;-59
2021/04/27 06:15:16;;;;;;;37.40;16.55;;;;;;;2.34;67.33;100440.09;115023;1202;23179;-58
2021/04/27 06:17:46;;;;;;;37.07;15.03;;;;;;;2.48;67.45;100433.58;115091;1200;23096;-61
2021/04/27 06:20:17;;;;;;;33.57;15.13;;;;;;;2.58;67.23;100437.34;115275;1196;23099;-61
2021/04/27 06:22:46;;;;;;;30.50;13.80;;;;;;;2.71;67.24;100441.06;115128;1202;23103;-61
2021/04/27 06:25:15;;;;;;;34.73;15.30;;;;;;;2.80;67.25;100439.30;115055;1202;23083;-61
2021/04/27 06:27:44;;;;;;;37.05;16.20;;;;;;;2.92;66.94;100441.44;115016;1201;23238;-59
2021/04/27 06:30:16;;;;;;;40.23;17.20;;;;;;;3.04;67.12;100445.56;115098;1202;23260;-61
2021/04/27 06:32:47;;;;;;;37.00;16.35;;;;;;;3.19;67.48;100447.61;115065;1202;23250;-59
2021/04/27 06:35:16;;;;;;;30.03;13.23;;;;;;;3.31;66.67;100446.19;115043;1202;27275;-61
2021/04/27 06:37:45;;;;;;;32.05;13.10;;;;;;;3.45;66.78;100445.92;115137;1202;23126;-64
2021/04/27 06:40:16;;;;;;;29.80;13.20;;;;;;;3.55;66.58;100444.92;115078;1200;25679;-62
2021/04/27 06:42:46;;;;;;;29.05;10.70;;;;;;;3.68;66.15;100445.83;115189;1203;23326;-61
2021/04/27 06:45:17;;;;;;;30.58;11.15;;;;;;;3.80;65.72;100456.22;115052;1197;27173;-62
2021/04/27 06:47:47;;;;;;;29.75;9.65;;;;;;;3.93;65.55;100446.04;115152;1202;27423;-60
2021/04/27 06:50:18;;;;;;;22.15;8.95;;;;;;;4.05;65.36;100441.84;115154;1202;27406;-61
2021/04/27 06:52:46;;;;;;;;;;;;;;;4.15;64.99;100440.03;115068;1204;23097;-61
2021/04/27 06:55:16;;;;;;;19.73;6.10;;;;;;;4.28;64.91;100440.91;115137;1202;25808;-61
2021/04/27 06:57:46;;;;;;;19.83;6.13;;;;;;;4.40;64.42;100443.77;115128;1202;23103;-61
2021/04/27 07:00:19;;;;;;;21.17;6.13;;;;;;;4.51;64.21;100437.97;115209;1202;23117;-60
2021/04/27 07:02:49;;;;;;;19.15;5.85;;;;;;;4.62;63.87;100430.95;115142;1203;23096;-60
2021/04/27 07:05:18;;;;;;;18.38;5.60;;;;;;;4.73;63.73;100439.77;115355;1203;24765;-61
2021/04/27 07:07:48;;;;;;;16.78;5.80;;;;;;;4.82;63.36;100433.62;115192;1201;23256;-60
2021/04/27 07:10:18;;;;;;;19.98;5.18;;;;;;;4.88;63.00;100429.86;115182;1202;23092;-58
2021/04/27 07:12:48;;;;;;;17.17;4.27;;;;;;;4.99;62.55;100435.11;115120;1202;23226;-60
2021/04/27 07:15:18;;;;;;;11.80;2.83;;;;;;;5.06;62.51;100439.68;115022;1197;23240;-60
2021/04/27 07:17:49;;;;;;;9.68;2.88;;;;;;;5.11;62.25;100434.38;115254;1197;23096;-59
2021/04/27 07:20:18;;;;;;;15.07;2.83;;;;;;;5.21;62.12;100436.11;115126;1196;27275;-60
2021/04/27 07:22:47;;;;;;;12.87;3.43;;;;;;;5.27;61.52;100437.12;115303;1202;23250;-59
2021/04/27 07:25:17;;;;;;;11.45;3.45;;;;;;;5.33;61.46;100437.34;115139;1202;26589;-59
2021/04/27 07:27:47;;;;;;;12.78;3.43;;;;;;;5.37;61.20;100438.02;115121;1201;23081;-59
2021/04/27 07:30:20;;;;;;;13.55;4.15;;;;;;;5.42;61.39;100438.25;115168;1196;23222;-59
2021/04/27 07:32:51;;;;;;;13.35;3.25;;;;;;;5.48;60.85;100430.19;115362;1202;27304;-61
2021/04/27 07:35:21;;;;;;;13.75;3.00;;;;;;;5.55;60.29;100430.75;115222;1202;26219;-58
2021/04/27 07:37:50;;;;;;;11.07;3.07;;;;;;;5.67;60.58;100432.77;115492;1201;23103;-59
2021/04/27 07:40:20;;;;;;;12.83;3.10;;;;;;;5.77;60.02;100424.59;115338;1202;23320;-58
2021/04/27 07:42:49;;;;;;;13.70;2.60;;;;;;;5.77;58.71;100432.90;115106;1202;23096;-59
2021/04/27 07:45:18;;;;;;;12.47;2.50;;;;;;;5.81;58.92;100437.13;115169;1196;23098;-59
2021/04/27 07:47:47;;;;;;;12.80;2.90;;;;;;;5.84;57.97;100438.23;115204;1196;23544;-58
2021/04/27 07:50:16;;;;;;;13.00;2.70;;;;;;;5.87;58.34;100432.61;115292;1196;28552;-59
2021/04/27 07:52:45;;;;;;;11.47;2.63;;;;;;;5.91;57.70;100440.80;115198;1197;26130;-59
2021/04/27 07:55:14;;;;;;;11.53;2.57;;;;;;;5.96;57.98;100438.25;115093;1202;23236;-60
2021/04/27 07:57:43;;;;;;;13.20;2.80;;;;;;;5.98;57.13;100440.59;115081;1202;23105;-60
2021/04/27 08:00:13;;;;;;;12.23;2.23;;;;;;;5.98;57.19;100437.83;115063;1202;23163;-59
2021/04/27 08:02:43;;;;;;;10.13;2.30;;;;;;;6.02;57.44;100444.03;115146;1197;23108;-59
2021/04/27 08:05:14;;;;;;;9.48;1.85;;;;;;;6.07;56.49;100435.15;115219;1197;23154;-59
2021/04/27 08:07:43;;;;;;;11.25;2.30;;;;;;;6.10;55.98;100437.05;115194;1202;23102;-58
2021/04/27 08:10:16;;;;;;;11.27;2.33;;;;;;;6.13;56.43;100439.70;115070;1201;23111;-59
2021/04/27 08:12:48;;;;;;;6.90;1.65;;;;;;;6.15;55.42;100437.26;115254;1197;23098;-58
2021/04/27 08:15:19;;;;;;;11.30;1.70;;;;;;;6.20;55.29;100447.02;115159;1196;23118;-60
2021/04/27 08:17:49;;;;;;;6.20;1.10;;;;;;;6.34;54.36;100432.69;115082;1203;25906;-59
2021/04/27 08:20:18;;;;;;;5.40;1.40;;;;;;;6.42;54.88;100436.78;115278;1197;23138;-59
2021/04/27 08:22:48;;;;;;;7.43;1.10;;;;;;;6.51;53.67;100432.13;115209;1200;23168;-59
2021/04/27 08:25:18;;;;;;;6.10;1.25;;;;;;;6.64;54.10;100440.42;115156;1203;25559;-59
2021/04/27 08:27:50;;;;;;;8.58;1.78;;;;;;;6.75;54.35;100443.59;115153;1202;23099;-58
2021/04/27 08:30:22;;;;;;;8.27;1.70;;;;;;;6.85;53.88;100442.45;115280;1201;23095;-62
2021/04/27 08:32:56;;;;;;;8.17;1.90;;;;;;;6.93;53.78;100437.45;115159;1201;23109;-58
2021/04/27 08:35:25;;;;;;;10.60;2.10;;;;;;;6.97;53.57;100433.30;115173;1202;23097;-58
2021/04/27 08:37:53;;;;;;;10.95;2.05;;;;;;;7.06;53.32;100433.39;115214;1202;23092;-58
2021/04/27 08:40:22;;;;;;;8.17;1.43;;;;;;;7.10;52.71;100427.70;115126;1196;23095;-57
2021/04/27 08:42:52;;;;;;;7.95;1.40;;;;;;;7.18;51.76;100431.80;115148;1201;23182;-61
2021/04/27 08:45:22;;;;;;;8.05;1.75;;;;;;;7.24;51.12;100430.75;115211;1202;23198;-59
2021/04/27 08:47:53;;;;;;;8.98;1.75;;;;;;;7.27;50.93;100429.86;115236;1202;23115;-58
2021/04/27 08:50:23;;;;;;;6.70;1.30;;;;;;;7.29;51.06;100435.73;115213;1196;27211;-60
2021/04/27 08:52:52;;;;;;;7.47;1.20;;;;;;;7.30;50.75;100431.72;115184;1196;23095;-60
2021/04/27 08:55:21;;;;;;;7.90;1.50;;;;;;;7.30;50.53;100433.74;115269;1201;27185;-57
2021/04/27 08:57:51;;;;;;;6.70;1.70;;;;;;;7.28;50.90;100431.39;115219;1202;23356;-59
2021/04/27 09:00:22;;;;;;;11.93;1.60;;;;;;;7.32;51.00;100432.03;115201;1197;23103;-59
2021/04/27 09:02:57;;;;;;;8.23;1.70;;;;;;;7.37;50.59;100430.69;115243;1201;23101;-59
2021/04/27 09:05:29;;;;;;;7.93;1.40;;;;;;;7.38;49.43;100418.36;115703;1202;23081;-58
2021/04/27 09:08:00;;;;;;;6.40;1.20;;;;;;;7.34;49.41;100431.61;115231;1202;23088;-57
2021/04/27 09:10:30;;;;;;;5.53;1.10;;;;;;;7.37;49.58;100421.60;115212;1202;23095;-58
2021/04/27 09:13:02;;;;;;;7.30;1.30;;;;;;;7.43;49.10;100417.77;115226;1202;23093;-58
2021/04/27 09:15:36;;;;;;;5.90;1.00;;;;;;;7.59;49.46;100420.35;115183;1202;23346;-59
2021/04/27 09:18:28;;;;;;;11.35;1.70;;;;;;;7.79;49.29;100420.77;115365;1201;23109;-59
2021/04/27 09:21:00;;;;;;;5.00;1.00;;;;;;;7.95;48.86;100416.96;115295;1202;23252;-59
2021/04/27 09:23:31;;;;;;;5.27;0.90;;;;;;;8.07;48.27;100407.73;115175;1196;24616;-58
2021/04/27 09:26:15;;;;;;;4.70;0.85;;;;;;;8.25;48.20;100407.04;115207;1202;23091;-60
2021/04/27 09:28:46;;;;;;;3.45;0.85;;;;;;;8.36;47.23;100410.20;115166;1203;23095;-59
2021/04/27 09:31:26;;;;;;;3.40;0.80;;;;;;;8.37;46.59;100400.61;115394;1201;23099;-59
2021/04/27 09:34:16;;;;;;;4.27;0.90;;;;;;;8.42;47.56;100405.58;115245;1202;23109;-59
2021/04/27 09:36:45;;;;;;;4.00;0.70;;;;;;;8.52;46.49;100390.45;115250;1202;23092;-60
2021/04/27 09:39:14;;;;;;;4.20;0.70;;;;;;;8.54;45.83;100390.76;115170;1201;23113;-62
2021/04/27 09:41:57;;;;;;;2.90;0.90;;;;;;;8.58;46.11;100400.51;115157;1196;27932;-58
2021/04/27 09:44:28;;;;;;;4.85;0.90;;;;;;;8.58;45.02;100397.73;115173;1197;23117;-60
2021/04/27 09:47:27;;;;;;;6.23;1.00;;;;;;;8.53;45.64;100394.77;115258;1201;23173;-58
2021/04/27 09:49:59;;;;;;;4.20;0.90;;;;;;;8.48;45.42;100395.39;115164;1202;23245;-57
2021/04/27 09:52:30;;;;;;;5.27;0.90;;;;;;;8.44;46.01;100389.20;115265;1200;26112;-57
2021/04/27 09:55:12;;;;;;;4.07;0.90;;;;;;;8.41;45.45;100384.54;115242;1201;23120;-57
2021/04/27 09:57:47;;;;;;;5.97;1.03;;;;;;;8.37;44.28;100387.48;115103;1198;26038;-57
2021/04/27 10:00:25;;;;;;;5.67;0.90;;;;;;;8.30;44.36;100382.20;115022;1202;23108;-59
2021/04/27 10:02:56;;;;;;;6.00;1.20;;;;;;;8.22;44.21;100371.79;115299;1202;23109;-59
2021/04/27 10:05:25;;;;;;;5.05;1.20;;;;;;;8.26;44.35;100369.66;115297;1199;24761;-57
2021/04/27 10:07:57;;;;;;;5.27;1.07;;;;;;;8.34;44.07;100382.83;115278;1202;23117;-58
2021/04/27 10:10:28;;;;;;;5.50;1.10;;;;;;;8.39;43.69;100375.88;115244;1196;23096;-58
2021/04/27 10:12:59;;;;;;;7.53;1.33;;;;;;;8.41;43.80;100371.41;115017;1196;24729;-59
2021/04/27 10:15:29;;;;;;;4.40;1.30;;;;;;;8.44;42.87;100366.94;115342;1197;24122;-58
2021/04/27 10:18:02;;;;;;;7.85;1.20;;;;;;;8.45;43.69;100371.26;115085;1202;23209;-60
2021/04/27 10:20:47;;;;;;;;;;;;;;;8.47;42.73;100364.00;115258;1205;23103;-57
2021/04/27 10:23:19;;;;;;;6.10;1.00;;;;;;;8.53;43.43;100356.59;115063;1202;21598;-60
2021/04/27 10:25:52;;;;;;;4.65;1.05;;;;;;;8.55;43.04;100345.77;115206;1197;23093;-58
2021/04/27 10:28:20;;;;;;;7.23;1.03;;;;;;;8.59;43.35;100351.95;115136;1203;25555;-58
2021/04/27 10:30:49;;;;;;;8.60;1.40;;;;;;;8.62;42.97;100344.69;115132;1201;23108;-59
2021/04/27 10:33:21;;;;;;;6.30;0.90;;;;;;;8.73;43.00;100331.84;115160;1201;23105;-59
2021/04/27 10:36:16;;;;;;;4.20;0.80;;;;;;;8.83;42.69;100329.85;115247;1202;23119;-58
2021/04/27 10:38:48;;;;;;;3.93;0.80;;;;;;;8.84;41.07;100326.59;114643;1199;23110;-57
2021/04/27 10:41:21;;;;;;;6.63;0.80;;;;;;;8.86;41.93;100320.55;114827;1203;23141;-58
2021/04/27 10:44:02;;;;;;;6.65;1.20;;;;;;;8.92;41.71;100324.27;114658;1203;23100;-58
2021/04/27 10:47:01;;;;;;;4.40;0.90;;;;;;;8.98;41.48;100324.42;114703;1203;23205;-58
2021/04/27 10:49:42;;;;;;;5.70;0.70;;;;;;;8.98;41.48;100317.61;114843;1203;23132;-59
2021/04/27 10:52:31;;;;;;;5.80;0.90;;;;;;;9.00;40.70;100313.59;114692;1203;23108;-55
2021/04/27 10:55:28;;;;;;;4.30;1.00;;;;;;;9.02;40.40;100303.55;114777;1200;23265;-60
2021/04/27 10:57:58;;;;;;;6.67;1.03;;;;;;;9.04;40.81;100300.28;114700;1203;23312;-56
2021/04/27 11:00:40;;;;;;;7.63;1.17;;;;;;;9.03;40.62;100296.72;114721;1200;24739;-67
2021/04/27 11:03:22;;;;;;;5.80;1.10;;;;;;;9.08;40.49;100298.11;114856;1203;23340;-59
2021/04/27 11:05:54;;;;;;;5.85;1.00;;;;;;;9.15;40.59;100283.84;114726;1200;23125;-58
2021/04/27 11:08:22;;;;;;;5.80;1.10;;;;;;;9.18;40.66;100299.63;114729;1203;23135;-60
2021/04/27 11:10:51;;;;;;;7.57;1.00;;;;;;;9.21;40.04;100293.13;114680;1200;25981;-59
2021/04/27 11:13:20;;;;;;;7.10;1.00;;;;;;;9.17;39.71;100287.70;114790;1203;24790;-60
2021/04/27 11:15:48;;;;;;;9.10;1.55;;;;;;;9.16;40.15;100286.18;115008;1201;26149;-58
2021/04/27 11:18:19;;;;;;;3.43;0.80;;;;;;;9.22;39.84;100281.52;115121;1202;23122;-58
2021/04/27 11:20:51;;;;;;;4.07;0.70;;;;;;;9.22;39.55;100269.59;115200;1202;23108;-59
2021/04/27 11:23:46;;;;;;;5.40;0.90;;;;;;;9.22;39.72;100277.95;115455;1202;26207;-60
2021/04/27 11:26:53;;;;;;;6.30;0.95;;;;;;;9.35;40.33;100278.53;115454;1201;23096;-59
2021/04/27 11:29:30;;;;;;;3.20;0.80;;;;;;;9.41;39.80;100266.28;115088;1202;23128;-59
2021/04/27 11:32:12;;;;;;;4.75;1.00;;;;;;;9.43;39.20;100272.16;117176;1201;23247;-56